Time;durP1;ratioP1;P1;durP2;ratioP2;P2;SDS_P1;SDS_P2;PMS_P1;PMS_P2;Temp;Humidity;BMP_temperature;BMP_pressure;BME280_temperature;BME280_humidity;BME280_pressure;Samples;Min_cycle;Max_cycle;Signal;HPM_P1;HPM_P2
2024/04/07 00:01:05;;;;;;;2.30;2.10;;;17.90;29.10;;;;;;5026408;28;20268;-66
2024/04/07 00:03:32;;;;;;;3.17;2.30;;;17.90;28.70;;;;;;5023684;28;20221;-65
2024/04/07 00:05:57;;;;;;;3.17;2.70;;;17.80;28.80;;;;;;5023878;28;20210;-65
2024/04/07 00:08:24;;;;;;;2.90;2.30;;;17.80;29.00;;;;;;5023565;28;20208;-66
2024/04/07 00:10:50;;;;;;;2.30;2.10;;;17.80;28.70;;;;;;5019319;28;20224;-65
2024/04/07 00:13:16;;;;;;;2.63;2.10;;;17.70;28.90;;;;;;5025814;28;20223;-65
2024/04/07 00:15:42;;;;;;;2.67;2.33;;;17.70;28.80;;;;;;5019807;28;20234;-65
2024/04/07 00:18:09;;;;;;;2.97;2.23;;;17.70;28.70;;;;;;5024972;28;20207;-65
2024/04/07 00:20:35;;;;;;;2.30;2.10;;;17.70;28.70;;;;;;5016664;28;20210;-66
2024/04/07 00:23:02;;;;;;;3.00;2.57;;;17.70;28.60;;;;;;5023387;28;20218;-65
2024/04/07 00:25:27;;;;;;;2.30;2.10;;;17.60;29.40;;;;;;5022889;28;20204;-65
2024/04/07 00:27:54;;;;;;;2.63;2.00;;;17.60;28.70;;;;;;5018690;28;20260;-65
2024/04/07 00:30:19;;;;;;;2.73;2.23;;;17.60;28.70;;;;;;5018420;28;20602;-65
2024/04/07 00:32:46;;;;;;;2.30;2.07;;;17.60;28.80;;;;;;5023076;28;20234;-65
2024/04/07 00:35:13;;;;;;;3.93;2.33;;;17.60;28.60;;;;;;5024350;28;20211;-65
2024/04/07 00:37:40;;;;;;;3.10;2.43;;;17.60;28.70;;;;;;5021004;28;20250;-66
2024/04/07 00:40:06;;;;;;;3.07;2.20;;;17.60;28.60;;;;;;5016055;28;20203;-65
2024/04/07 00:42:32;;;;;;;3.80;2.40;;;17.60;28.50;;;;;;5022838;28;20217;-66
2024/04/07 00:44:58;;;;;;;2.33;2.17;;;17.50;28.60;;;;;;5022931;28;20205;-65
2024/04/07 00:47:25;;;;;;;2.40;2.20;;;17.50;29.00;;;;;;5020678;28;20722;-65
2024/04/07 00:49:50;;;;;;;2.90;2.20;;;17.50;28.70;;;;;;5028300;28;20207;-65
2024/04/07 00:52:17;;;;;;;2.20;2.00;;;17.60;28.40;;;;;;5024660;28;20718;-65
2024/04/07 00:54:42;;;;;;;3.40;2.50;;;17.60;28.60;;;;;;5020517;28;20215;-66
2024/04/07 00:57:09;;;;;;;3.17;2.30;;;17.50;28.70;;;;;;5020967;28;20203;-65
2024/04/07 00:59:35;;;;;;;2.40;2.20;;;17.50;28.70;;;;;;5020113;28;20216;-65
2024/04/07 01:02:02;;;;;;;2.33;1.97;;;17.50;29.90;;;;;;5028806;28;20229;-65
2024/04/07 01:04:28;;;;;;;2.50;2.27;;;17.20;30.20;;;;;;5025297;28;20301;-65
2024/04/07 01:06:54;;;;;;;2.37;2.17;;;17.00;30.40;;;;;;5023632;28;20293;-65
2024/04/07 01:09:20;;;;;;;2.60;2.17;;;16.80;31.70;;;;;;5012574;28;20205;-65
2024/04/07 01:11:47;;;;;;;2.47;2.27;;;16.80;31.70;;;;;;5025746;28;20272;-65
2024/04/07 01:14:12;;;;;;;3.67;2.40;;;17.00;31.70;;;;;;5022991;28;20207;-65
2024/04/07 01:16:39;;;;;;;2.33;2.13;;;17.10;31.30;;;;;;5023059;28;20584;-65
2024/04/07 01:19:05;;;;;;;2.50;2.30;;;16.90;31.80;;;;;;5005215;28;20206;-66
2024/04/07 01:21:31;;;;;;;2.53;2.33;;;16.80;32.00;;;;;;5022094;28;20232;-65
2024/04/07 01:23:57;;;;;;;2.73;2.27;;;16.60;32.60;;;;;;5026630;28;20220;-66
2024/04/07 01:26:24;;;;;;;3.30;2.40;;;16.70;32.80;;;;;;5029134;28;20688;-66
2024/04/07 01:28:50;;;;;;;2.67;2.47;;;16.50;33.30;;;;;;5024791;28;20230;-66
2024/04/07 01:31:16;;;;;;;3.60;2.93;;;16.40;33.90;;;;;;5024623;28;20216;-65
2024/04/07 01:33:42;;;;;;;5.33;2.97;;;16.20;34.70;;;;;;5026372;28;21017;-66
2024/04/07 01:36:09;;;;;;;2.70;2.50;;;16.10;35.00;;;;;;5023209;28;20258;-65
2024/04/07 01:38:35;;;;;;;3.57;2.87;;;15.90;35.30;;;;;;5028242;28;20209;-65
2024/04/07 01:41:01;;;;;;;4.53;3.17;;;15.80;35.70;;;;;;5022908;28;20217;-65
2024/04/07 01:43:27;;;;;;;2.83;2.50;;;15.90;35.70;;;;;;5031292;28;20229;-66
2024/04/07 01:45:54;;;;;;;3.73;2.93;;;16.00;35.80;;;;;;5026786;28;20201;-66
2024/04/07 01:48:19;;;;;;;3.40;2.67;;;15.90;35.70;;;;;;5026783;28;20210;-65
2024/04/07 01:50:46;;;;;;;2.83;2.50;;;15.90;36.20;;;;;;5025125;28;20214;-65
2024/04/07 01:53:13;;;;;;;2.77;2.57;;;15.90;36.20;;;;;;5026339;28;20244;-65
2024/04/07 01:55:40;;;;;;;2.50;2.30;;;15.90;35.70;;;;;;5005430;28;20698;-65
2024/04/07 01:58:06;;;;;;;2.63;2.43;;;16.10;33.70;;;;;;5023335;28;20237;-65
2024/04/07 02:00:33;;;;;;;2.60;2.40;;;16.20;32.90;;;;;;5025548;28;20235;-65
2024/04/07 02:02:59;;;;;;;2.30;2.10;;;16.50;31.50;;;;;;5028722;28;20234;-65
2024/04/07 02:05:25;;;;;;;1.90;1.80;;;16.70;30.20;;;;;;5023016;28;20210;-66
2024/04/07 02:07:51;;;;;;;2.13;1.93;;;16.80;29.70;;;;;;5025112;28;20220;-65
2024/04/07 02:10:17;;;;;;;2.77;1.90;;;16.80;29.80;;;;;;5025120;28;20210;-65
2024/04/07 02:12:43;;;;;;;2.23;1.90;;;16.90;29.20;;;;;;5024008;28;20225;-65
2024/04/07 02:15:10;;;;;;;1.87;1.70;;;16.90;28.80;;;;;;5023001;28;20557;-65
2024/04/07 02:17:35;;;;;;;4.37;2.07;;;16.90;28.70;;;;;;5027714;28;20578;-65
2024/04/07 02:20:02;;;;;;;1.93;1.80;;;16.90;28.80;;;;;;5027975;28;20206;-66
2024/04/07 02:22:28;;;;;;;2.43;2.23;;;16.80;28.80;;;;;;5022531;28;20283;-65
2024/04/07 02:24:54;;;;;;;3.67;1.70;;;16.80;28.90;;;;;;5025574;28;20205;-65
2024/04/07 02:27:20;;;;;;;3.13;1.80;;;16.70;29.10;;;;;;5025109;28;20270;-65
2024/04/07 02:29:47;;;;;;;3.97;2.37;;;16.70;29.00;;;;;;5021241;28;20692;-65
2024/04/07 02:32:12;;;;;;;2.33;2.10;;;16.70;29.00;;;;;;5021666;28;20238;-65
2024/04/07 02:34:39;;;;;;;2.47;1.87;;;16.70;29.00;;;;;;5028825;28;20675;-65
2024/04/07 02:37:05;;;;;;;2.30;2.07;;;16.70;28.90;;;;;;5021334;28;20220;-65
2024/04/07 02:39:32;;;;;;;4.00;2.20;;;16.70;29.00;;;;;;5023296;28;20289;-65
2024/04/07 02:41:57;;;;;;;1.90;1.80;;;16.60;29.10;;;;;;5027225;28;20324;-65
2024/04/07 02:48:04;;;;;;;2.30;2.13;;;16.60;29.00;;;;;;5023632;28;20279;-66
2024/04/07 02:49:55;;;;;;;2.20;2.00;;;16.40;29.40;;;;;;5020670;28;20208;-65
2024/04/07 02:52:21;;;;;;;2.53;2.33;;;16.50;29.50;;;;;;5022212;28;20236;-65
2024/04/07 02:54:48;;;;;;;2.27;2.07;;;16.50;29.60;;;;;;5028542;28;20665;-65
2024/04/07 02:57:15;;;;;;;2.27;2.10;;;16.50;29.00;;;;;;5028447;28;20676;-65
2024/04/07 02:59:40;;;;;;;2.23;1.83;;;16.40;29.10;;;;;;5021258;28;20203;-64
2024/04/07 03:02:07;;;;;;;2.33;2.00;;;16.40;29.10;;;;;;5029219;28;20599;-65
2024/04/07 03:04:33;;;;;;;2.20;2.00;;;16.30;28.90;;;;;;5027427;28;20680;-65
2024/04/07 03:07:00;;;;;;;3.00;2.00;;;16.30;29.00;;;;;;5018476;28;20212;-65
2024/04/07 03:09:26;;;;;;;1.70;1.60;;;16.30;28.70;;;;;;5031808;28;20275;-65
2024/04/07 03:11:53;;;;;;;1.93;1.70;;;16.30;28.70;;;;;;5024171;28;20224;-65
2024/04/07 03:14:19;;;;;;;2.20;1.87;;;16.30;28.60;;;;;;5024480;28;20692;-65
2024/04/07 03:16:46;;;;;;;4.17;3.03;;;16.20;28.70;;;;;;5016985;28;20205;-65
2024/04/07 03:19:11;;;;;;;2.10;2.00;;;16.30;28.50;;;;;;5018766;28;20217;-65
2024/04/07 03:21:38;;;;;;;2.87;1.77;;;16.20;28.60;;;;;;5022715;28;20572;-66
2024/04/07 03:24:03;;;;;;;1.90;1.80;;;16.10;28.50;;;;;;5029133;28;20210;-65
2024/04/07 03:26:30;;;;;;;2.77;1.87;;;16.20;28.60;;;;;;5027030;28;20293;-65
2024/04/07 03:28:55;;;;;;;2.13;1.93;;;16.10;28.50;;;;;;5020452;28;20225;-66
2024/04/07 03:31:22;;;;;;;3.07;1.93;;;16.10;28.50;;;;;;5020408;28;20205;-65
2024/04/07 03:33:48;;;;;;;3.17;1.87;;;16.10;28.30;;;;;;5026218;28;20636;-65
2024/04/07 03:36:15;;;;;;;1.80;1.70;;;16.10;28.30;;;;;;5019916;28;20232;-65
2024/04/07 03:38:41;;;;;;;2.40;1.70;;;16.10;28.20;;;;;;5023384;28;20263;-65
2024/04/07 03:41:08;;;;;;;1.70;1.60;;;16.10;28.40;;;;;;5026058;28;20209;-65
2024/04/07 03:43:35;;;;;;;4.90;2.00;;;16.10;28.40;;;;;;5005736;28;20263;-65
2024/04/07 03:46:02;;;;;;;3.90;2.27;;;16.10;28.20;;;;;;5026575;28;20215;-65
2024/04/07 03:48:29;;;;;;;2.37;1.73;;;16.10;28.20;;;;;;5021582;28;20212;-65
2024/04/07 03:50:56;;;;;;;2.43;2.10;;;16.10;28.30;;;;;;5023709;28;20207;-65
2024/04/07 03:53:23;;;;;;;2.53;1.80;;;16.00;28.20;;;;;;5023609;28;20239;-65
2024/04/07 03:55:48;;;;;;;2.00;1.80;;;16.00;28.20;;;;;;5016850;28;20578;-65
2024/04/07 03:58:15;;;;;;;2.57;1.53;;;16.00;28.20;;;;;;5013130;28;20205;-65
2024/04/07 04:00:41;;;;;;;3.03;1.60;;;16.00;28.10;;;;;;5024165;28;20205;-65
2024/04/07 04:03:07;;;;;;;2.13;1.83;;;16.00;28.10;;;;;;5028646;28;20574;-65
2024/04/07 04:05:33;;;;;;;1.93;1.77;;;16.00;28.20;;;;;;5008257;28;20215;-65
2024/04/07 04:08:00;;;;;;;1.80;1.70;;;16.00;27.70;;;;;;5029439;28;20286;-65
2024/04/07 04:10:25;;;;;;;1.73;1.63;;;16.10;27.40;;;;;;5023776;28;20208;-65
2024/04/07 04:12:52;;;;;;;1.93;1.83;;;16.00;27.40;;;;;;5029068;28;20237;-65
2024/04/07 04:15:17;;;;;;;2.00;1.90;;;16.00;27.60;;;;;;5022882;28;20661;-65
2024/04/07 04:17:44;;;;;;;1.70;1.60;;;16.00;27.70;;;;;;5023729;28;20206;-65
2024/04/07 04:20:11;;;;;;;1.83;1.73;;;16.00;27.60;;;;;;5024864;28;20210;-65
2024/04/07 04:22:37;;;;;;;1.70;1.53;;;16.00;27.50;;;;;;5020399;28;20235;-65
2024/04/07 04:25:03;;;;;;;1.80;1.70;;;15.90;27.40;;;;;;5008546;28;20214;-65
2024/04/07 04:27:30;;;;;;;2.30;1.73;;;15.90;27.40;;;;;;5028134;28;20198;-65
2024/04/07 04:29:56;;;;;;;2.40;1.77;;;15.90;27.00;;;;;;5012244;28;20219;-65
2024/04/07 04:32:22;;;;;;;1.73;1.60;;;16.00;27.10;;;;;;5014203;28;20241;-64
2024/04/07 04:34:48;;;;;;;1.70;1.60;;;16.00;27.10;;;;;;5030164;28;20199;-65
2024/04/07 04:37:14;;;;;;;2.07;1.80;;;16.10;27.10;;;;;;5035026;28;20286;-64
2024/04/07 04:39:40;;;;;;;2.03;1.70;;;16.10;26.60;;;;;;5015805;28;20311;-65
2024/04/07 04:42:07;;;;;;;1.87;1.77;;;16.10;26.40;;;;;;5033293;28;20286;-64
2024/04/07 04:44:32;;;;;;;1.90;1.80;;;16.10;26.40;;;;;;5030470;28;20669;-65
2024/04/07 04:47:00;;;;;;;1.60;1.50;;;16.10;26.40;;;;;;5019954;28;20209;-65
2024/04/07 04:49:25;;;;;;;1.73;1.60;;;16.10;26.20;;;;;;5016411;28;20665;-65
2024/04/07 04:51:52;;;;;;;2.20;2.00;;;16.20;26.20;;;;;;5030780;28;20264;-65
2024/04/07 04:54:18;;;;;;;2.83;2.43;;;16.10;26.20;;;;;;5022942;28;20220;-65
2024/04/07 04:56:44;;;;;;;3.43;2.30;;;16.20;26.20;;;;;;5028656;28;20205;-65
2024/04/07 04:59:10;;;;;;;3.63;2.23;;;16.20;26.30;;;;;;5027710;28;20220;-65
2024/04/07 05:01:36;;;;;;;2.50;2.30;;;16.20;26.20;;;;;;5025414;28;20225;-65
2024/04/07 05:04:02;;;;;;;3.00;2.00;;;16.20;26.20;;;;;;5030039;28;20233;-65
2024/04/07 05:06:29;;;;;;;2.60;2.00;;;16.10;26.10;;;;;;5027806;28;20203;-65
2024/04/07 05:08:54;;;;;;;2.20;2.00;;;16.10;26.40;;;;;;5027852;28;20213;-66
2024/04/07 05:11:21;;;;;;;1.90;1.70;;;16.10;26.20;;;;;;5027888;28;20299;-65
2024/04/07 05:13:46;;;;;;;1.60;1.50;;;16.00;26.20;;;;;;5027514;28;20233;-65
2024/04/07 05:16:13;;;;;;;1.87;1.73;;;16.10;26.10;;;;;;5024102;28;20203;-64
2024/04/07 05:18:39;;;;;;;1.97;1.70;;;16.10;26.00;;;;;;5019729;28;20910;-65
2024/04/07 05:21:06;;;;;;;1.50;1.40;;;16.10;26.00;;;;;;5030757;28;20211;-65
2024/04/07 05:23:31;;;;;;;1.60;1.50;;;16.20;26.10;;;;;;5025380;28;20223;-64
2024/04/07 05:25:58;;;;;;;1.50;1.40;;;16.20;26.10;;;;;;5025976;28;20688;-65
2024/04/07 05:28:26;;;;;;;1.60;1.50;;;16.10;26.30;;;;;;5025959;28;20601;-65
2024/04/07 05:30:52;;;;;;;1.90;1.63;;;16.20;26.40;;;;;;5030210;28;20227;-65
2024/04/07 05:33:18;;;;;;;1.60;1.50;;;16.10;26.30;;;;;;5022792;28;20235;-65
2024/04/07 05:35:45;;;;;;;1.80;1.70;;;16.10;26.10;;;;;;5025739;28;20208;-65
2024/04/07 05:38:10;;;;;;;1.60;1.50;;;16.20;26.00;;;;;;5027942;28;20224;-65
2024/04/07 05:40:37;;;;;;;2.17;1.40;;;16.20;26.20;;;;;;5026663;28;20302;-65
2024/04/07 05:43:02;;;;;;;2.40;1.60;;;16.20;26.40;;;;;;5024371;28;20244;-63
2024/04/07 05:45:29;;;;;;;2.87;1.63;;;16.20;26.70;;;;;;5023457;28;20611;-65
2024/04/07 05:47:55;;;;;;;1.43;1.33;;;16.20;26.20;;;;;;5026000;28;20220;-65
2024/04/07 05:50:21;;;;;;;1.63;1.53;;;16.30;26.20;;;;;;5025792;28;20198;-64
2024/04/07 05:52:47;;;;;;;1.87;1.70;;;16.40;26.20;;;;;;5025970;28;20233;-65
2024/04/07 05:55:13;;;;;;;1.73;1.63;;;16.40;26.40;;;;;;5020376;28;20221;-65
2024/04/07 05:57:39;;;;;;;1.93;1.63;;;16.30;26.30;;;;;;5028676;28;20205;-65
2024/04/07 06:00:08;;;;;;;1.80;1.70;;;16.40;26.30;;;;;;5025515;28;20202;-65
2024/04/07 06:02:33;;;;;;;1.73;1.63;;;16.50;26.60;;;;;;5018079;28;20233;-65
2024/04/07 06:05:00;;;;;;;1.97;1.80;;;16.50;26.40;;;;;;5022555;28;20238;-65
2024/04/07 06:07:25;;;;;;;1.50;1.40;;;16.50;26.40;;;;;;5022492;28;20276;-65
2024/04/07 06:09:52;;;;;;;3.77;1.80;;;16.50;26.10;;;;;;5025861;28;20206;-65
2024/04/07 06:12:18;;;;;;;1.60;1.50;;;16.50;26.70;;;;;;5025492;28;20307;-64
2024/04/07 06:14:46;;;;;;;1.70;1.60;;;16.70;26.20;;;;;;5027039;28;20293;-65
2024/04/07 06:17:11;;;;;;;1.50;1.40;;;16.80;25.90;;;;;;5028001;28;20209;-65
2024/04/07 06:19:38;;;;;;;2.00;1.90;;;17.00;25.70;;;;;;5024455;28;20205;-65
2024/04/07 06:22:03;;;;;;;3.63;1.50;;;17.00;25.70;;;;;;5032156;28;20240;-64
2024/04/07 06:24:30;;;;;;;1.60;1.50;;;17.10;25.80;;;;;;5032387;28;20213;-64
2024/04/07 06:26:55;;;;;;;2.43;1.87;;;17.20;25.90;;;;;;5021375;28;20277;-65
2024/04/07 06:29:23;;;;;;;1.97;1.43;;;17.30;25.70;;;;;;5022709;28;20697;-65
2024/04/07 06:31:49;;;;;;;1.63;1.53;;;17.40;26.00;;;;;;5026311;28;20230;-65
2024/04/07 06:34:15;;;;;;;2.03;1.50;;;17.50;25.70;;;;;;5025009;28;20247;-65
2024/04/07 06:36:41;;;;;;;1.80;1.57;;;17.40;25.50;;;;;;5012085;28;20206;-65
2024/04/07 06:39:08;;;;;;;1.60;1.50;;;17.40;25.50;;;;;;5020828;28;20233;-65
2024/04/07 06:41:34;;;;;;;1.77;1.67;;;17.30;25.50;;;;;;5032082;28;20316;-65
2024/04/07 06:44:01;;;;;;;2.37;1.80;;;17.30;25.50;;;;;;5025309;28;20633;-65
2024/04/07 06:46:27;;;;;;;3.50;1.50;;;17.40;25.50;;;;;;5024408;28;20301;-65
2024/04/07 06:48:53;;;;;;;3.17;1.53;;;17.40;25.40;;;;;;5020848;28;20245;-64
2024/04/07 06:51:19;;;;;;;1.50;1.40;;;17.40;25.40;;;;;;5024630;28;20221;-65
2024/04/07 06:53:46;;;;;;;1.93;1.30;;;17.50;25.30;;;;;;5024912;28;20234;-65
2024/04/07 06:56:11;;;;;;;2.03;1.60;;;17.50;25.30;;;;;;5024604;28;20600;-65
2024/04/07 06:58:38;;;;;;;1.50;1.40;;;17.60;25.30;;;;;;5027301;28;20213;-65
2024/04/07 07:01:04;;;;;;;3.23;2.07;;;17.60;25.40;;;;;;5037723;28;20212;-66
2024/04/07 07:03:30;;;;;;;1.60;1.50;;;17.80;25.40;;;;;;5017633;28;20657;-65
2024/04/07 07:05:56;;;;;;;2.77;1.80;;;17.90;25.40;;;;;;5019233;28;20206;-65
2024/04/07 07:08:23;;;;;;;1.90;1.80;;;18.00;25.30;;;;;;5022952;28;20570;-65
2024/04/07 07:10:48;;;;;;;2.37;1.50;;;18.10;25.10;;;;;;5024608;28;20512;-65
2024/04/07 07:13:15;;;;;;;1.90;1.80;;;18.20;25.50;;;;;;5028017;28;20230;-65
2024/04/07 07:15:40;;;;;;;1.93;1.50;;;18.20;24.90;;;;;;5023935;28;20216;-65
2024/04/07 07:18:08;;;;;;;1.70;1.60;;;18.20;25.10;;;;;;5022577;28;20203;-65
2024/04/07 07:20:33;;;;;;;3.57;1.80;;;18.30;25.40;;;;;;5025058;28;20211;-66
2024/04/07 07:23:00;;;;;;;2.00;1.80;;;18.40;25.40;;;;;;5026854;28;20272;-66
2024/04/07 07:25:26;;;;;;;1.80;1.50;;;18.80;30.20;;;;;;5027140;28;20217;-65
2024/04/07 07:27:52;;;;;;;2.20;1.60;;;18.70;26.10;;;;;;5011354;28;20204;-64
2024/04/07 07:30:18;;;;;;;2.53;1.70;;;18.60;26.80;;;;;;5022771;28;20215;-64
2024/04/07 07:32:44;;;;;;;2.17;1.70;;;18.50;27.80;;;;;;5016394;28;20232;-65
2024/04/07 07:35:11;;;;;;;3.57;1.93;;;18.40;28.70;;;;;;5021828;28;20701;-65
2024/04/07 07:37:38;;;;;;;2.37;1.83;;;18.30;28.60;;;;;;5020666;28;20201;-65
2024/04/07 07:40:04;;;;;;;8.10;2.23;;;18.30;28.40;;;;;;5030660;28;20206;-64
2024/04/07 07:42:31;;;;;;;2.57;1.90;;;18.00;28.40;;;;;;5021973;28;20714;-65
2024/04/07 07:44:56;;;;;;;1.53;1.43;;;18.00;28.40;;;;;;5003753;28;20210;-64
2024/04/07 07:47:23;;;;;;;2.47;1.60;;;18.10;28.50;;;;;;5023695;28;20210;-65
2024/04/07 07:49:49;;;;;;;1.90;1.80;;;18.10;28.50;;;;;;5022020;28;20216;-64
2024/04/07 07:52:15;;;;;;;2.20;1.80;;;18.10;28.50;;;;;;5022094;28;20323;-64
2024/04/07 07:54:41;;;;;;;2.67;1.93;;;18.20;28.60;;;;;;5027803;28;20580;-64
2024/04/07 07:57:08;;;;;;;3.27;1.57;;;18.30;29.50;;;;;;5020474;28;20200;-64
2024/04/07 07:59:33;;;;;;;2.83;1.90;;;18.50;29.00;;;;;;5011770;28;20207;-65
2024/04/07 08:02:00;;;;;;;2.33;1.60;;;18.50;29.40;;;;;;5020208;28;20800;-65
2024/04/07 08:04:25;;;;;;;2.33;1.63;;;18.70;29.20;;;;;;4996783;28;20232;-64
2024/04/07 08:06:52;;;;;;;1.70;1.60;;;18.90;29.00;;;;;;5018016;28;21003;-65
2024/04/07 08:09:23;;;;;;;1.63;1.53;;;19.10;27.50;;;;;;5027258;28;20217;-64
2024/04/07 08:11:50;;;;;;;1.70;1.60;;;19.30;26.70;;;;;;5020319;28;20281;-65
2024/04/07 08:14:15;;;;;;;1.70;1.60;;;19.60;27.50;;;;;;5028126;28;20354;-65
2024/04/07 08:16:42;;;;;;;1.93;1.50;;;19.90;27.10;;;;;;5015398;28;20585;-65
2024/04/07 08:19:09;;;;;;;1.70;1.50;;;20.40;26.30;;;;;;5025168;28;20208;-64
2024/04/07 08:21:36;;;;;;;1.73;1.40;;;20.60;26.10;;;;;;5023654;28;20230;-64
2024/04/07 08:24:03;;;;;;;1.47;1.37;;;20.80;25.60;;;;;;5024007;28;20213;-65
2024/04/07 08:26:29;;;;;;;1.70;1.60;;;21.20;24.60;;;;;;5010493;28;20202;-65
2024/04/07 08:28:56;;;;;;;1.58;1.48;;;21.50;24.60;;;;;;5027810;28;20241;-65
2024/04/07 08:31:23;;;;;;;1.75;1.60;;;21.90;24.50;;;;;;5031019;28;20214;-65
2024/04/07 08:33:49;;;;;;;3.55;1.88;;;22.70;23.30;;;;;;5019246;28;20608;-65
2024/04/07 08:36:15;;;;;;;1.30;1.20;;;25.10;21.60;;;;;;5026511;28;20665;-65
2024/04/07 08:38:42;;;;;;;2.83;1.40;;;27.40;18.90;;;;;;5011613;28;20203;-65
2024/04/07 08:41:07;;;;;;;2.20;1.50;;;26.60;19.10;;;;;;5024503;28;20226;-65
2024/04/07 08:43:34;;;;;;;1.67;1.55;;;25.60;19.70;;;;;;5030080;28;20190;-65
2024/04/07 08:45:59;;;;;;;2.30;1.30;;;24.90;19.90;;;;;;5023592;28;20210;-65
2024/04/07 08:48:26;;;;;;;1.30;1.20;;;24.40;20.80;;;;;;5023816;28;20216;-65
2024/04/07 08:50:51;;;;;;;2.78;1.40;;;24.30;21.00;;;;;;5011491;28;20207;-64
2024/04/07 08:53:18;;;;;;;3.20;1.10;;;24.50;21.20;;;;;;5018983;28;20245;-65
2024/04/07 08:55:44;;;;;;;3.95;1.20;;;24.50;21.20;;;;;;5021187;28;20203;-64
2024/04/07 08:58:13;;;;;;;1.42;1.30;;;24.30;20.60;;;;;;5022869;28;20207;-65
2024/04/07 09:00:39;;;;;;;1.88;1.00;;;24.40;21.10;;;;;;5022814;28;20210;-65
2024/04/07 09:03:06;;;;;;;1.38;1.00;;;24.40;21.00;;;;;;5022065;28;20774;-65
2024/04/07 09:05:31;;;;;;;3.70;1.20;;;24.60;20.30;;;;;;5022090;28;20210;-66
2024/04/07 09:07:58;;;;;;;2.53;1.20;;;24.70;21.40;;;;;;5024029;28;20217;-65
2024/04/07 09:10:24;;;;;;;4.20;1.45;;;25.00;20.70;;;;;;5019580;28;20210;-65
2024/04/07 09:12:51;;;;;;;1.88;1.08;;;24.90;20.40;;;;;;5022449;28;20317;-66
2024/04/07 09:15:18;;;;;;;2.22;1.35;;;25.10;19.80;;;;;;5016330;28;20211;-65
2024/04/07 09:17:43;;;;;;;2.22;1.30;;;25.30;19.40;;;;;;5020165;28;20297;-65
2024/04/07 09:20:10;;;;;;;2.85;1.58;;;25.20;19.10;;;;;;5029775;28;20721;-64
2024/04/07 09:22:35;;;;;;;2.92;1.50;;;25.20;19.90;;;;;;5025636;28;20230;-65
2024/04/07 09:25:02;;;;;;;2.08;1.10;;;25.60;19.70;;;;;;5028751;28;20675;-65
2024/04/07 09:27:28;;;;;;;2.38;1.40;;;25.70;19.10;;;;;;5027462;28;20206;-65
2024/04/07 09:29:54;;;;;;;1.80;1.33;;;25.80;19.20;;;;;;5017064;28;20215;-65
2024/04/07 09:32:21;;;;;;;1.52;1.10;;;26.20;19.70;;;;;;5027585;28;20226;-65
2024/04/07 09:34:48;;;;;;;2.72;1.20;;;26.90;19.30;;;;;;5029518;28;20676;-65
2024/04/07 09:37:14;;;;;;;3.00;1.08;;;27.60;17.60;;;;;;5024769;28;20207;-64
2024/04/07 09:39:40;;;;;;;2.05;1.10;;;28.10;18.00;;;;;;5024705;28;20220;-65
2024/04/07 09:42:06;;;;;;;2.72;1.42;;;29.90;16.80;;;;;;5027534;28;20305;-63
2024/04/07 09:44:32;;;;;;;4.88;1.50;;;29.50;16.40;;;;;;5025542;28;20194;-65
2024/04/07 09:46:58;;;;;;;1.55;1.20;;;28.60;15.90;;;;;;5030715;28;20244;-61
2024/04/07 09:49:25;;;;;;;7.40;3.80;;;27.80;16.50;;;;;;5029831;28;20222;-69
2024/04/07 09:51:50;;;;;;;5.55;2.33;;;26.80;24.40;;;;;;5027839;28;20740;-68
2024/04/07 09:54:17;;;;;;;8.23;3.90;;;26.00;23.90;;;;;;5019140;28;20364;-69
2024/04/07 09:56:42;;;;;;;6.70;3.17;;;25.50;23.10;;;;;;5030994;28;21441;-69
2024/04/07 09:59:09;;;;;;;8.77;4.55;;;25.40;23.50;;;;;;5019737;28;20207;-69
2024/04/07 10:01:35;;;;;;;7.13;3.80;;;25.30;24.70;;;;;;5020154;28;20630;-68
2024/04/07 10:04:02;;;;;;;3.92;2.30;;;25.30;23.30;;;;;;5020660;28;20217;-68
2024/04/07 10:06:27;;;;;;;7.90;3.45;;;25.30;20.40;;;;;;5017214;28;20207;-69
2024/04/07 10:08:54;;;;;;;11.93;6.13;;;25.50;24.20;;;;;;5019848;28;20728;-69
2024/04/07 10:11:20;;;;;;;12.45;5.20;;;25.30;25.60;;;;;;5024514;28;20202;-68
2024/04/07 10:13:46;;;;;;;11.15;3.88;;;25.40;21.60;;;;;;5024591;28;20233;-68
2024/04/07 10:16:12;;;;;;;8.20;3.42;;;25.30;22.50;;;;;;5025812;28;20282;-68
2024/04/07 10:18:39;;;;;;;8.27;2.78;;;25.20;21.60;;;;;;5027604;28;20833;-70
2024/04/07 10:21:04;;;;;;;7.72;2.40;;;25.20;20.90;;;;;;5014557;28;20215;-69
2024/04/07 10:23:31;;;;;;;7.22;3.03;;;25.10;20.30;;;;;;5027930;28;20310;-70
2024/04/07 10:25:59;;;;;;;9.18;3.35;;;25.00;20.20;;;;;;5021905;28;20683;-70
2024/04/07 10:28:26;;;;;;;13.30;4.55;;;24.90;23.40;;;;;;5022946;28;20559;-70
2024/04/07 10:30:51;;;;;;;9.38;3.63;;;25.00;23.70;;;;;;5031096;28;20217;-70
2024/04/07 10:33:17;;;;;;;12.63;3.17;;;25.00;21.50;;;;;;5016037;28;20222;-69
2024/04/07 10:35:44;;;;;;;12.05;4.18;;;24.80;20.60;;;;;;5017750;28;20296;-69
2024/04/07 10:38:09;;;;;;;9.05;3.17;;;24.90;24.80;;;;;;5018591;28;20210;-70
2024/04/07 10:40:36;;;;;;;8.32;3.45;;;24.90;22.00;;;;;;5019159;28;20691;-69
2024/04/07 10:43:01;;;;;;;17.98;6.65;;;24.90;21.50;;;;;;5026906;28;20716;-69
2024/04/07 10:45:28;;;;;;;7.60;4.00;;;25.00;26.10;;;;;;5032241;28;20236;-67
2024/04/07 10:47:54;;;;;;;5.03;2.35;;;25.00;22.70;;;;;;5026693;28;20210;-69
2024/04/07 10:50:21;;;;;;;14.80;6.97;;;25.10;21.50;;;;;;5011823;28;20210;-69
2024/04/07 10:52:47;;;;;;;12.75;6.13;;;25.10;26.60;;;;;;5032458;28;20227;-69
2024/04/07 10:55:13;;;;;;;9.50;3.28;;;25.20;25.50;;;;;;5023010;28;20222;-71
2024/04/07 10:57:39;;;;;;;12.32;4.40;;;25.10;21.60;;;;;;5024273;28;20285;-71
2024/04/07 11:00:06;;;;;;;7.18;3.65;;;25.00;24.70;;;;;;5027142;28;20214;-69
2024/04/07 11:02:31;;;;;;;11.55;3.92;;;25.00;22.10;;;;;;5003958;28;20222;-68
2024/04/07 11:04:58;;;;;;;12.65;5.40;;;24.90;25.00;;;;;;5033838;28;20202;-70
2024/04/07 11:07:25;;;;;;;20.08;10.85;;;25.00;26.30;;;;;;5014340;28;20625;-69
2024/04/07 11:09:53;;;;;;;8.30;2.58;;;24.90;27.20;;;;;;5028252;28;20268;-71
2024/04/07 11:12:19;;;;;;;14.38;7.22;;;25.00;22.00;;;;;;5028117;28;20626;-71
2024/04/07 11:14:45;;;;;;;11.88;3.58;;;24.90;25.20;;;;;;5022404;28;20226;-69
2024/04/07 11:17:11;;;;;;;7.60;2.80;;;25.00;22.00;;;;;;5028086;28;20290;-69
2024/04/07 11:19:38;;;;;;;10.43;4.07;;;25.30;22.20;;;;;;5015082;28;20285;-71
2024/04/07 11:22:03;;;;;;;8.85;2.65;;;25.30;24.90;;;;;;5021092;28;20232;-67
2024/04/07 11:24:30;;;;;;;15.55;7.57;;;25.40;21.20;;;;;;5006393;28;20636;-67
2024/04/07 11:26:55;;;;;;;26.45;11.32;;;25.20;25.80;;;;;;5022927;28;20215;-67
2024/04/07 11:29:22;;;;;;;11.05;4.82;;;25.00;26.70;;;;;;5023484;28;20633;-67
2024/04/07 11:31:48;;;;;;;11.85;3.38;;;25.30;21.70;;;;;;5016424;28;20241;-67
2024/04/07 11:34:14;;;;;;;11.10;3.75;;;25.40;24.20;;;;;;5032246;28;20226;-67
2024/04/07 11:36:40;;;;;;;17.90;8.82;;;25.30;22.50;;;;;;5036107;28;20202;-68
2024/04/07 11:39:08;;;;;;;11.48;3.17;;;25.10;25.50;;;;;;5025465;28;20309;-67
2024/04/07 11:41:34;;;;;;;7.20;3.10;;;25.20;24.00;;;;;;5029581;28;20288;-68
2024/04/07 11:44:02;;;;;;;9.18;4.53;;;25.10;23.80;;;;;;5027684;28;20203;-67
2024/04/07 11:46:27;;;;;;;11.85;3.80;;;25.10;23.00;;;;;;5029548;28;20206;-67
2024/04/07 11:48:54;;;;;;;11.82;5.80;;;25.10;23.40;;;;;;5028069;28;20551;-68
2024/04/07 11:51:20;;;;;;;17.95;7.32;;;25.20;24.90;;;;;;5014530;28;20291;-68
2024/04/07 11:53:47;;;;;;;15.30;6.10;;;25.00;26.40;;;;;;5030736;28;20231;-68
2024/04/07 11:56:12;;;;;;;23.25;7.22;;;25.20;24.80;;;;;;5004082;28;20202;-68
2024/04/07 11:58:39;;;;;;;11.25;2.88;;;25.10;24.60;;;;;;5022058;28;20548;-67
2024/04/07 12:01:05;;;;;;;10.13;3.58;;;25.30;21.70;;;;;;5020165;28;20752;-67
2024/04/07 12:03:31;;;;;;;10.07;3.55;;;25.40;23.50;;;;;;5027004;28;20253;-67
2024/04/07 12:05:57;;;;;;;21.27;5.75;;;25.40;23.90;;;;;;5031438;28;20206;-68
2024/04/07 12:08:24;;;;;;;9.90;4.00;;;25.30;25.60;;;;;;5029432;28;20216;-69
2024/04/07 12:10:49;;;;;;;14.45;4.65;;;25.40;25.00;;;;;;5022577;28;20285;-67
2024/04/07 12:13:16;;;;;;;9.85;3.67;;;25.10;25.90;;;;;;5038661;28;20758;-66
2024/04/07 12:15:41;;;;;;;15.07;3.63;;;25.00;25.90;;;;;;5020611;28;20211;-68
2024/04/07 12:18:08;;;;;;;13.25;3.10;;;24.90;25.40;;;;;;5017584;28;20226;-65
2024/04/07 12:20:33;;;;;;;13.55;3.53;;;25.00;23.90;;;;;;5014763;28;20658;-69
2024/04/07 12:23:00;;;;;;;9.02;3.80;;;24.80;24.60;;;;;;5017964;28;20322;-68
2024/04/07 12:25:27;;;;;;;11.88;3.72;;;24.90;26.20;;;;;;5024031;28;20401;-68
2024/04/07 12:27:54;;;;;;;9.85;3.42;;;24.80;26.20;;;;;;5030585;28;20781;-69
2024/04/07 12:30:19;;;;;;;7.22;2.33;;;24.90;26.20;;;;;;5025338;28;20209;-70
2024/04/07 12:32:46;;;;;;;10.95;4.05;;;25.00;22.10;;;;;;5033983;28;20727;-68
2024/04/07 12:35:11;;;;;;;11.13;4.40;;;25.10;26.00;;;;;;5042245;28;20236;-69
2024/04/07 12:37:38;;;;;;;8.63;3.38;;;24.90;26.20;;;;;;5022126;28;20577;-67
2024/04/07 12:40:04;;;;;;;10.05;2.75;;;24.90;26.40;;;;;;5025842;28;20993;-68
2024/04/07 12:42:32;;;;;;;7.93;3.45;;;25.10;23.40;;;;;;5024008;28;20355;-67